Time;durP1;ratioP1;P1;durP2;ratioP2;P2;SDS_P1;SDS_P2;PMS_P1;PMS_P2;Temp;Humidity;BMP_temperature;BMP_pressure;BME280_temperature;BME280_humidity;BME280_pressure;Samples;Min_cycle;Max_cycle;Signal;HPM_P1;HPM_P2
2022/01/11 00:00:41;;;;;;;11.13;9.60;;;;;;;-1.47;100.00;101567.94;5022266;28;20207;-49
2022/01/11 00:03:07;;;;;;;10.37;8.87;;;;;;;-1.48;100.00;101578.00;5028959;28;20603;-49
2022/01/11 00:05:59;;;;;;;10.57;9.40;;;;;;;-1.49;100.00;101574.56;5025058;28;20191;-50
2022/01/11 00:08:29;;;;;;;9.53;8.57;;;;;;;-1.44;100.00;101569.81;5021867;28;20249;-49
2022/01/11 00:11:02;;;;;;;10.47;8.80;;;;;;;-1.35;100.00;101570.34;5027316;28;20187;-50
2022/01/11 00:13:30;;;;;;;11.83;9.47;;;;;;;-1.24;100.00;101566.78;5026353;28;20232;-50
2022/01/11 00:15:55;;;;;;;10.70;9.53;;;;;;;-1.14;100.00;101574.97;5027500;28;20262;-50
2022/01/11 00:18:21;;;;;;;10.20;8.93;;;;;;;-1.04;100.00;101573.81;5019839;28;20996;-50
2022/01/11 00:20:46;;;;;;;11.57;9.00;;;;;;;-0.97;100.00;101575.94;5017640;28;20251;-50
2022/01/11 00:25:40;;;;;;;10.17;9.00;;;;;;;-0.81;100.00;101570.97;5025531;28;20200;-50
2022/01/11 00:28:07;;;;;;;9.70;8.57;;;;;;;-0.73;100.00;101575.63;5025314;28;20291;-50
2022/01/11 00:30:36;;;;;;;10.70;9.00;;;;;;;-0.65;100.00;101574.41;5026719;28;20212;-50
2022/01/11 00:33:07;;;;;;;12.67;9.17;;;;;;;-0.60;100.00;101577.22;5033824;28;20658;-50
2022/01/11 00:35:48;;;;;;;9.10;8.20;;;;;;;-0.54;100.00;101577.56;5020492;28;20585;-50
2022/01/11 00:38:18;;;;;;;11.70;9.37;;;;;;;-0.52;100.00;101579.41;5022912;28;20283;-50
2022/01/11 00:40:48;;;;;;;9.27;8.27;;;;;;;-0.50;100.00;101580.38;5020628;28;20232;-50
2022/01/11 00:43:16;;;;;;;10.73;9.63;;;;;;;-0.47;100.00;101588.19;5024501;28;20188;-50
2022/01/11 00:45:41;;;;;;;12.70;9.87;;;;;;;-0.46;100.00;101576.34;5025544;28;20317;-50
2022/01/11 00:48:07;;;;;;;10.80;9.33;;;;;;;-0.50;100.00;101585.47;5031145;28;20291;-50
2022/01/11 00:50:33;;;;;;;11.30;9.17;;;;;;;-0.55;100.00;101584.31;5027749;28;20323;-50
2022/01/11 00:52:59;;;;;;;10.57;9.47;;;;;;;-0.59;100.00;101586.59;5023168;28;20272;-50
2022/01/11 00:55:24;;;;;;;10.43;9.07;;;;;;;-0.64;100.00;101584.66;5028375;28;20602;-50
2022/01/11 00:57:50;;;;;;;10.33;8.37;;;;;;;-0.69;100.00;101581.00;5015889;28;20667;-49
2022/01/11 01:00:15;;;;;;;9.00;8.10;;;;;;;-0.74;100.00;101582.38;5022029;28;20233;-49
2022/01/11 01:02:42;;;;;;;9.67;8.13;;;;;;;-0.77;100.00;101583.09;5028549;28;20189;-49
2022/01/11 01:05:08;;;;;;;11.30;8.57;;;;;;;-0.78;100.00;101573.72;5029398;28;20286;-49
2022/01/11 01:07:34;;;;;;;9.60;8.30;;;;;;;-0.77;100.00;101585.63;5027647;28;20208;-49
2022/01/11 01:10:18;;;;;;;9.80;8.80;;;;;;;-0.78;100.00;101580.44;5025263;28;20689;-49
2022/01/11 01:12:43;;;;;;;10.23;9.23;;;;;;;-0.78;100.00;101582.97;5026858;28;20207;-50
2022/01/11 01:15:09;;;;;;;10.50;8.87;;;;;;;-0.79;100.00;101589.75;5023425;28;20625;-50
2022/01/11 01:17:34;;;;;;;10.90;8.93;;;;;;;-0.81;100.00;101592.97;5041573;28;20238;-50
2022/01/11 01:19:59;;;;;;;9.47;8.53;;;;;;;-0.83;100.00;101594.56;5044838;28;20198;-50
2022/01/11 01:22:25;;;;;;;10.37;9.30;;;;;;;-0.85;100.00;101601.22;5033042;28;20238;-49
2022/01/11 01:24:50;;;;;;;9.90;8.90;;;;;;;-0.87;100.00;101602.78;5020022;28;20652;-50
2022/01/11 01:27:16;;;;;;;10.07;8.80;;;;;;;-0.88;100.00;101591.72;5026128;28;20223;-49
2022/01/11 01:29:41;;;;;;;10.13;8.83;;;;;;;-0.90;100.00;101600.91;5025312;28;20201;-50
2022/01/11 01:32:08;;;;;;;9.00;8.10;;;;;;;-0.93;100.00;101598.22;5017442;28;20695;-50
2022/01/11 01:34:34;;;;;;;9.97;8.73;;;;;;;-0.97;100.00;101604.78;5023573;28;20196;-50
2022/01/11 01:36:59;;;;;;;8.93;8.03;;;;;;;-1.02;100.00;101608.72;5023102;28;20200;-50
2022/01/11 01:39:25;;;;;;;10.00;8.23;;;;;;;-1.05;100.00;101603.44;5023532;28;20192;-50
2022/01/11 01:41:51;;;;;;;9.40;8.13;;;;;;;-1.08;100.00;101606.69;5030698;28;20207;-50
2022/01/11 01:44:17;;;;;;;10.80;7.83;;;;;;;-1.08;100.00;101616.84;5025060;28;20285;-49
2022/01/11 01:46:42;;;;;;;10.60;9.50;;;;;;;-1.08;100.00;101618.50;5016500;28;20185;-49
2022/01/11 01:49:14;;;;;;;15.67;12.17;;;;;;;-1.08;100.00;101615.97;5020664;28;20185;-50
2022/01/11 01:51:40;;;;;;;14.93;12.60;;;;;;;-1.09;100.00;101619.28;5022823;28;20196;-50
2022/01/11 01:54:06;;;;;;;15.03;11.83;;;;;;;-1.09;100.00;101620.19;5021340;28;20199;-50
2022/01/11 01:56:31;;;;;;;12.50;10.23;;;;;;;-1.07;100.00;101622.81;5014700;28;20198;-50
2022/01/11 01:58:56;;;;;;;13.10;11.70;;;;;;;-1.04;100.00;101623.00;5020494;28;20796;-50
2022/01/11 02:01:22;;;;;;;15.27;13.00;;;;;;;-1.06;100.00;101621.16;5023205;28;20207;-50
2022/01/11 02:03:48;;;;;;;12.00;10.80;;;;;;;-1.10;100.00;101626.03;5016689;28;20525;-49
2022/01/11 02:06:18;;;;;;;13.83;10.93;;;;;;;-1.14;100.00;101628.31;5023771;28;20250;-50
2022/01/11 02:08:49;;;;;;;11.80;9.37;;;;;;;-1.20;100.00;101628.78;5023956;28;20533;-49
2022/01/11 02:11:16;;;;;;;11.67;9.77;;;;;;;-1.26;100.00;101615.75;5029851;28;20184;-49
2022/01/11 02:13:41;;;;;;;11.50;9.30;;;;;;;-1.32;100.00;101618.78;5017960;28;21142;-49
2022/01/11 02:16:07;;;;;;;10.83;9.13;;;;;;;-1.37;100.00;101612.53;5016376;28;20217;-49
2022/01/11 02:18:32;;;;;;;10.97;9.27;;;;;;;-1.36;100.00;101609.22;5018262;28;20291;-49
2022/01/11 02:20:58;;;;;;;13.63;12.13;;;;;;;-1.31;100.00;101625.63;5015154;28;20254;-50
2022/01/11 02:23:26;;;;;;;15.13;12.03;;;;;;;-1.24;100.00;101626.88;5025227;28;20203;-49
2022/01/11 02:25:51;;;;;;;12.53;11.07;;;;;;;-1.19;100.00;101622.06;5018730;28;20262;-50
2022/01/11 02:28:21;;;;;;;11.73;10.47;;;;;;;-1.11;100.00;101620.84;5021564;28;20214;-50
2022/01/11 02:30:48;;;;;;;12.97;10.67;;;;;;;-1.03;100.00;101624.75;5012989;28;20258;-50
2022/01/11 02:33:31;;;;;;;12.50;11.10;;;;;;;-1.00;100.00;101617.31;5025211;28;20190;-49
2022/01/11 02:35:57;;;;;;;11.93;10.67;;;;;;;-0.99;100.00;101626.69;5018067;28;20624;-51
2022/01/11 02:38:22;;;;;;;11.97;10.13;;;;;;;-1.00;100.00;101606.25;5014314;28;20249;-49
2022/01/11 02:40:48;;;;;;;10.00;8.97;;;;;;;-1.03;100.00;101617.13;5015887;28;20278;-51
2022/01/11 02:43:14;;;;;;;11.63;9.80;;;;;;;-1.08;100.00;101611.78;5022064;28;20195;-49
2022/01/11 02:45:39;;;;;;;11.10;8.73;;;;;;;-1.14;100.00;101619.00;5024900;28;20594;-51
2022/01/11 02:48:05;;;;;;;10.93;8.90;;;;;;;-1.17;100.00;101630.66;5015388;28;20207;-49
2022/01/11 02:50:31;;;;;;;10.87;9.17;;;;;;;-1.20;100.00;101628.78;5020177;28;20687;-51
2022/01/11 02:52:56;;;;;;;12.43;9.07;;;;;;;-1.21;100.00;101631.25;5020349;28;20197;-49
2022/01/11 02:55:21;;;;;;;11.10;8.63;;;;;;;-1.24;100.00;101632.81;5024668;28;20651;-51
2022/01/11 02:57:47;;;;;;;10.70;9.53;;;;;;;-1.22;100.00;101632.94;5020241;28;20215;-49
2022/01/11 03:00:18;;;;;;;11.27;9.63;;;;;;;-1.20;100.00;101635.56;5017173;28;20202;-49
2022/01/11 03:02:44;;;;;;;11.07;9.53;;;;;;;-1.19;100.00;101624.63;5017036;28;20225;-49
2022/01/11 03:05:11;;;;;;;11.07;9.53;;;;;;;-1.17;100.00;101636.59;5015641;28;20210;-49
2022/01/11 03:07:37;;;;;;;17.40;13.27;;;;;;;-1.12;100.00;101634.34;5014665;28;20223;-49
2022/01/11 03:12:47;;;;;;;20.57;17.23;;;;;;;-1.00;100.00;101636.75;5024185;28;20986;-49
2022/01/11 03:15:13;;;;;;;23.00;18.93;;;;;;;-0.96;100.00;101638.69;5023992;28;20196;-49
2022/01/11 03:17:39;;;;;;;25.40;20.07;;;;;;;-0.93;100.00;101632.13;5024867;28;20658;-49
2022/01/11 03:20:06;;;;;;;21.03;18.57;;;;;;;-0.87;100.00;101635.84;5021796;28;20246;-49
2022/01/11 03:22:31;;;;;;;22.73;18.63;;;;;;;-0.86;100.00;101625.75;5022196;28;20289;-49
2022/01/11 03:24:59;;;;;;;22.33;18.50;;;;;;;-0.83;100.00;101632.69;5025178;28;20279;-49
2022/01/11 03:27:25;;;;;;;21.00;15.80;;;;;;;-0.86;100.00;101629.97;5022639;28;20732;-49
2022/01/11 03:29:51;;;;;;;19.17;14.70;;;;;;;-0.93;100.00;101642.28;5024670;28;20278;-51
2022/01/11 03:32:18;;;;;;;17.40;13.73;;;;;;;-0.99;100.00;101625.81;5022406;28;20200;-48
2022/01/11 03:34:45;;;;;;;17.20;13.73;;;;;;;-1.05;100.00;101638.13;5026068;28;20227;-49
2022/01/11 03:37:17;;;;;;;16.20;13.27;;;;;;;-1.12;100.00;101630.16;5030730;28;20211;-50
2022/01/11 03:39:42;;;;;;;14.83;12.53;;;;;;;-1.16;100.00;101630.75;5014755;28;20199;-49
2022/01/11 03:42:08;;;;;;;15.77;12.87;;;;;;;-1.20;100.00;101638.97;5024522;28;20259;-49
2022/01/11 03:44:33;;;;;;;19.50;15.67;;;;;;;-1.26;100.00;101629.31;5026865;28;20212;-49
2022/01/11 03:47:00;;;;;;;18.17;14.80;;;;;;;-1.28;100.00;101637.63;5020769;28;20199;-49
2022/01/11 03:49:25;;;;;;;16.63;14.23;;;;;;;-1.32;100.00;101634.03;5017414;28;20204;-50
2022/01/11 03:51:51;;;;;;;16.67;13.33;;;;;;;-1.39;100.00;101635.31;5022979;28;20192;-51
2022/01/11 03:54:23;;;;;;;14.53;13.03;;;;;;;-1.45;100.00;101634.94;5027579;28;20192;-50
2022/01/11 03:56:50;;;;;;;16.93;13.67;;;;;;;-1.50;100.00;101631.22;5024866;28;20201;-49
2022/01/11 03:59:15;;;;;;;18.80;13.07;;;;;;;-1.54;100.00;101636.91;5030186;28;20529;-51
2022/01/11 04:01:41;;;;;;;16.83;13.03;;;;;;;-1.59;100.00;101635.72;5028036;28;20220;-50
2022/01/11 04:04:09;;;;;;;15.87;12.70;;;;;;;-1.62;100.00;101633.00;5025919;28;20205;-51
2022/01/11 04:06:34;;;;;;;14.57;12.47;;;;;;;-1.65;100.00;101635.34;5024061;28;20202;-49
2022/01/11 04:09:00;;;;;;;16.20;12.70;;;;;;;-1.70;100.00;101635.94;5026337;28;20215;-51
2022/01/11 04:11:25;;;;;;;15.27;12.70;;;;;;;-1.73;100.00;101632.31;5019216;28;20179;-49
2022/01/11 04:13:51;;;;;;;13.93;11.63;;;;;;;-1.77;100.00;101635.47;4995098;28;20193;-50
2022/01/11 04:16:16;;;;;;;13.23;11.93;;;;;;;-1.80;100.00;101641.22;5025414;28;20298;-49
2022/01/11 04:18:41;;;;;;;19.93;15.90;;;;;;;-1.82;100.00;101640.25;5023564;28;20224;-49
2022/01/11 04:21:08;;;;;;;19.57;15.03;;;;;;;-1.83;100.00;101641.03;5029550;28;20207;-49
2022/01/11 04:23:34;;;;;;;21.17;16.40;;;;;;;-1.82;100.00;101637.72;5026849;28;20195;-50
2022/01/11 04:26:00;;;;;;;22.03;17.40;;;;;;;-1.76;100.00;101648.25;5026352;28;20798;-49
2022/01/11 04:28:30;;;;;;;23.50;17.93;;;;;;;-1.71;100.00;101651.06;5027592;28;20244;-49
2022/01/11 04:31:00;;;;;;;28.93;22.70;;;;;;;-1.62;100.00;101656.75;5025424;28;20219;-49
2022/01/11 04:33:27;;;;;;;26.03;21.20;;;;;;;-1.54;100.00;101658.09;5027724;28;20191;-49
2022/01/11 04:35:53;;;;;;;26.60;20.30;;;;;;;-1.48;100.00;101666.88;5023234;28;20571;-49
2022/01/11 04:38:23;;;;;;;31.03;21.57;;;;;;;-1.44;100.00;101667.16;5019347;28;20208;-51
2022/01/11 04:40:49;;;;;;;24.60;20.63;;;;;;;-1.38;100.00;101670.09;5026658;28;20200;-48
2022/01/11 04:43:15;;;;;;;25.57;19.70;;;;;;;-1.34;100.00;101678.78;5025351;28;20185;-50
2022/01/11 04:45:40;;;;;;;29.33;21.60;;;;;;;-1.30;100.00;101680.72;5023978;28;20669;-49
2022/01/11 04:48:06;;;;;;;32.07;22.40;;;;;;;-1.20;100.00;101673.66;5025751;28;20208;-50
2022/01/11 04:50:32;;;;;;;31.90;22.60;;;;;;;-1.16;100.00;101676.47;5026641;28;20212;-49
2022/01/11 04:52:59;;;;;;;29.40;21.57;;;;;;;-1.14;100.00;101681.66;5016772;28;20650;-49
2022/01/11 04:55:24;;;;;;;29.67;23.63;;;;;;;-1.11;100.00;101689.44;5020623;28;20196;-50
2022/01/11 04:57:50;;;;;;;31.50;22.37;;;;;;;-1.10;100.00;101689.56;5020970;28;20579;-50
2022/01/11 05:00:18;;;;;;;31.77;22.80;;;;;;;-1.03;100.00;101689.91;5023865;28;20376;-49
2022/01/11 05:02:43;;;;;;;31.67;23.57;;;;;;;-1.00;100.00;101688.47;5029408;28;20208;-49
2022/01/11 05:05:09;;;;;;;32.33;24.27;;;;;;;-0.96;100.00;101694.59;5026285;28;20666;-49
2022/01/11 05:07:35;;;;;;;28.70;24.13;;;;;;;-0.91;100.00;101695.78;5028285;28;20716;-49
2022/01/11 05:10:01;;;;;;;32.53;24.47;;;;;;;-0.87;100.00;101697.69;5025088;28;20269;-50
2022/01/11 05:12:26;;;;;;;29.33;23.80;;;;;;;-0.83;100.00;101704.72;5023203;28;20190;-50
2022/01/11 05:14:52;;;;;;;38.80;27.60;;;;;;;-0.78;100.00;101700.81;5023518;28;20191;-50
2022/01/11 05:17:17;;;;;;;36.83;26.20;;;;;;;-0.70;100.00;101702.91;5016571;28;20212;-49
2022/01/11 05:19:43;;;;;;;37.07;26.97;;;;;;;-0.65;100.00;101710.03;5018092;28;20660;-51
2022/01/11 05:22:08;;;;;;;34.33;26.43;;;;;;;-0.59;100.00;101711.19;5023974;28;20307;-50
2022/01/11 05:24:33;;;;;;;32.03;25.57;;;;;;;-0.55;100.00;101713.13;5011098;28;20197;-51
2022/01/11 05:26:59;;;;;;;35.00;25.43;;;;;;;-0.51;100.00;101712.50;5010522;28;20200;-49
2022/01/11 05:29:24;;;;;;;32.47;23.93;;;;;;;-0.46;100.00;101711.13;5015424;28;20226;-49
2022/01/11 05:31:50;;;;;;;32.77;24.93;;;;;;;-0.44;100.00;101714.66;5019963;28;20262;-49
2022/01/11 05:34:15;;;;;;;26.17;21.87;;;;;;;-0.43;100.00;101711.31;5018330;28;20195;-50
2022/01/11 05:36:41;;;;;;;30.87;23.73;;;;;;;-0.40;100.00;101719.13;5012993;28;20593;-49
2022/01/11 05:39:06;;;;;;;27.07;21.47;;;;;;;-0.38;100.00;101725.16;5017730;28;20199;-50
2022/01/11 05:41:33;;;;;;;26.87;22.03;;;;;;;-0.37;100.00;101724.38;5015573;28;20713;-49
2022/01/11 05:43:58;;;;;;;30.73;23.43;;;;;;;-0.35;100.00;101740.59;5016480;28;20509;-50
2022/01/11 05:46:24;;;;;;;30.13;22.67;;;;;;;-0.32;100.00;101727.22;5013019;28;20201;-48
2022/01/11 05:48:49;;;;;;;30.87;23.57;;;;;;;-0.28;100.00;101730.81;5012962;28;20686;-51
2022/01/11 05:51:15;;;;;;;35.77;26.03;;;;;;;-0.24;100.00;101725.97;5014713;28;20252;-49
2022/01/11 05:53:42;;;;;;;27.87;23.80;;;;;;;-0.24;100.00;101732.75;5011237;28;20189;-50
2022/01/11 05:56:08;;;;;;;31.60;24.20;;;;;;;-0.23;100.00;101732.81;5013289;28;20236;-50
2022/01/11 05:58:33;;;;;;;30.00;23.77;;;;;;;-0.18;100.00;101743.25;5033979;28;20189;-51
2022/01/11 06:00:59;;;;;;;27.63;22.73;;;;;;;-0.19;100.00;101734.78;5033142;28;20239;-57
2022/01/11 06:03:25;;;;;;;30.80;24.57;;;;;;;-0.16;100.00;101734.06;5017056;28;20216;-51
2022/01/11 06:05:50;;;;;;;30.53;22.83;;;;;;;-0.18;100.00;101736.53;5026979;28;20653;-49
2022/01/11 06:08:16;;;;;;;30.17;22.80;;;;;;;-0.18;100.00;101735.63;5018672;28;20207;-50
2022/01/11 06:10:45;;;;;;;24.50;20.50;;;;;;;-0.18;100.00;101746.72;5025408;28;20196;-48
2022/01/11 06:13:11;;;;;;;27.03;20.33;;;;;;;-0.17;100.00;101753.56;5021712;28;20595;-50
2022/01/11 06:15:37;;;;;;;34.17;24.03;;;;;;;-0.14;100.00;101757.94;5025112;28;20189;-49
2022/01/11 06:18:06;;;;;;;30.37;23.67;;;;;;;-0.12;100.00;101745.28;5020157;28;20248;-50
2022/01/11 06:20:32;;;;;;;31.47;24.30;;;;;;;-0.09;100.00;101753.09;5019835;28;20198;-51
2022/01/11 06:22:58;;;;;;;32.87;24.17;;;;;;;-0.10;100.00;101742.06;5016240;28;20200;-50
2022/01/11 06:25:24;;;;;;;29.17;22.40;;;;;;;-0.09;100.00;101756.53;5019487;28;20269;-49
2022/01/11 06:27:49;;;;;;;31.03;22.27;;;;;;;-0.07;100.00;101752.41;5017040;28;20204;-50
2022/01/11 06:30:16;;;;;;;29.53;21.77;;;;;;;-0.02;100.00;101743.38;5019072;28;20199;-49
2022/01/11 06:32:43;;;;;;;28.23;21.80;;;;;;;0.07;100.00;101742.16;5016754;28;20186;-51
2022/01/11 06:35:10;;;;;;;29.90;23.63;;;;;;;0.12;100.00;101763.66;5017204;28;20270;-49
2022/01/11 06:37:36;;;;;;;28.47;22.40;;;;;;;0.11;100.00;101761.88;5011174;28;20223;-51
2022/01/11 06:40:05;;;;;;;26.73;21.83;;;;;;;0.15;100.00;101759.59;5007651;28;20638;-49
2022/01/11 06:42:31;;;;;;;30.83;24.13;;;;;;;0.15;100.00;101768.91;5007359;28;20266;-51
2022/01/11 06:44:57;;;;;;;31.43;23.07;;;;;;;0.14;100.00;101757.88;5015591;28;20521;-51
2022/01/11 06:47:23;;;;;;;28.20;22.07;;;;;;;0.15;100.00;101772.34;5017674;28;20212;-51
2022/01/11 06:49:48;;;;;;;32.60;23.83;;;;;;;0.20;100.00;101764.97;5019596;28;20187;-50
2022/01/11 06:52:14;;;;;;;29.43;21.40;;;;;;;0.23;100.00;101769.38;5014811;28;20194;-51
2022/01/11 06:54:40;;;;;;;32.50;22.77;;;;;;;0.23;100.00;101771.91;5019651;28;20640;-49
2022/01/11 06:57:06;;;;;;;27.30;21.53;;;;;;;0.26;100.00;101775.50;5020160;28;20216;-51
2022/01/11 06:59:35;;;;;;;27.93;21.27;;;;;;;0.26;100.00;101772.94;5010597;28;20466;-50
2022/01/11 07:02:01;;;;;;;29.20;21.23;;;;;;;0.26;100.00;101792.47;5010048;28;20730;-51
2022/01/11 07:04:26;;;;;;;25.97;20.70;;;;;;;0.24;100.00;101788.94;5015237;28;20722;-50
2022/01/11 07:06:52;;;;;;;28.83;22.83;;;;;;;0.26;100.00;101788.22;5024897;28;20195;-51
2022/01/11 07:09:17;;;;;;;32.27;21.03;;;;;;;0.22;100.00;101787.97;5025527;28;20194;-49
2022/01/11 07:11:43;;;;;;;36.53;23.13;;;;;;;0.20;100.00;101790.44;5024813;28;20688;-51
2022/01/11 07:14:11;;;;;;;32.93;22.90;;;;;;;0.21;100.00;101792.19;5020648;28;20198;-49
2022/01/11 07:16:37;;;;;;;32.37;21.67;;;;;;;0.21;100.00;101794.75;5025708;28;20196;-49
2022/01/11 07:19:03;;;;;;;27.80;21.00;;;;;;;0.22;100.00;101796.50;5024084;28;20219;-49
2022/01/11 07:21:28;;;;;;;36.73;22.57;;;;;;;0.25;100.00;101800.88;5028059;28;20284;-50
2022/01/11 07:23:54;;;;;;;27.60;22.43;;;;;;;0.21;100.00;101804.94;5024928;28;20202;-49
2022/01/11 07:26:19;;;;;;;30.20;22.23;;;;;;;0.23;100.00;101805.88;5025212;28;20191;-51
2022/01/11 07:28:46;;;;;;;29.23;21.73;;;;;;;0.27;100.00;101812.03;5029977;28;20261;-51
2022/01/11 07:31:11;;;;;;;30.00;21.80;;;;;;;0.27;100.00;101819.69;5030085;28;20238;-49
2022/01/11 07:33:37;;;;;;;26.40;21.13;;;;;;;0.28;100.00;101813.81;5028603;28;20189;-49
2022/01/11 07:36:02;;;;;;;30.07;21.70;;;;;;;0.30;100.00;101815.63;5028992;28;20555;-50
2022/01/11 07:38:28;;;;;;;29.13;20.67;;;;;;;0.30;100.00;101818.19;5030653;28;20227;-49
2022/01/11 07:40:53;;;;;;;31.17;21.93;;;;;;;0.32;100.00;101827.59;5029041;28;20218;-49
2022/01/11 07:43:19;;;;;;;31.53;20.77;;;;;;;0.34;100.00;101833.66;5017722;28;20190;-50
2022/01/11 07:45:44;;;;;;;26.30;20.00;;;;;;;0.39;100.00;101825.47;5028938;28;20229;-49
2022/01/11 07:48:09;;;;;;;27.60;21.57;;;;;;;0.40;100.00;101839.97;5026481;28;20646;-49
2022/01/11 07:50:35;;;;;;;27.60;20.37;;;;;;;0.44;100.00;101838.47;5025478;28;20232;-50
2022/01/11 07:53:00;;;;;;;25.37;20.43;;;;;;;0.47;100.00;101842.84;5023712;28;20202;-49
2022/01/11 07:55:26;;;;;;;26.10;20.63;;;;;;;0.50;100.00;101843.03;5017198;28;20287;-50
2022/01/11 07:57:51;;;;;;;29.60;19.87;;;;;;;0.53;100.00;101841.53;5026758;28;20325;-49
2022/01/11 08:00:16;;;;;;;27.83;20.27;;;;;;;0.54;100.00;101843.28;5026129;28;20190;-49
2022/01/11 08:02:42;;;;;;;26.53;20.37;;;;;;;0.58;100.00;101850.31;5024457;28;20613;-49
2022/01/11 08:05:08;;;;;;;29.70;20.57;;;;;;;0.61;100.00;101847.06;5022630;28;20206;-50
2022/01/11 08:07:33;;;;;;;27.67;20.23;;;;;;;0.65;100.00;101858.34;5026238;28;20225;-49
2022/01/11 08:09:59;;;;;;;25.43;20.23;;;;;;;0.66;100.00;101852.44;5020442;28;20325;-49
2022/01/11 08:12:24;;;;;;;28.13;19.63;;;;;;;0.69;100.00;101855.16;5029011;28;20199;-49
2022/01/11 08:14:49;;;;;;;27.37;20.13;;;;;;;0.71;100.00;101854.47;5016276;28;20612;-49
2022/01/11 08:17:16;;;;;;;25.17;18.63;;;;;;;0.72;100.00;101852.78;5015950;28;20587;-49
2022/01/11 08:19:42;;;;;;;28.47;21.60;;;;;;;0.76;100.00;101854.72;5014237;28;20185;-50
2022/01/11 08:22:07;;;;;;;28.53;19.60;;;;;;;0.79;100.00;101851.44;5026586;28;20242;-49
2022/01/11 08:24:33;;;;;;;24.70;19.70;;;;;;;0.84;100.00;101850.06;5023556;28;20183;-50
2022/01/11 08:26:58;;;;;;;25.70;19.60;;;;;;;0.85;100.00;101856.91;5026561;28;20285;-50
2022/01/11 08:29:24;;;;;;;25.20;20.10;;;;;;;0.87;100.00;101848.53;5012473;28;20192;-49
2022/01/11 08:31:50;;;;;;;25.97;19.70;;;;;;;0.93;100.00;101854.78;5018372;28;20226;-49
2022/01/11 08:34:17;;;;;;;24.90;18.90;;;;;;;0.94;100.00;101854.84;5023507;28;20295;-51
2022/01/11 08:36:44;;;;;;;24.73;19.57;;;;;;;0.99;100.00;101852.56;5022866;28;20709;-49
2022/01/11 08:39:11;;;;;;;23.97;20.13;;;;;;;1.01;100.00;101856.06;5021760;28;20231;-51
2022/01/11 08:41:41;;;;;;;26.47;19.27;;;;;;;1.05;100.00;101863.09;5024874;28;20207;-51
2022/01/11 08:44:09;;;;;;;23.80;20.10;;;;;;;1.09;100.00;101861.59;5034486;28;20598;-51
2022/01/11 08:46:36;;;;;;;28.07;20.33;;;;;;;1.13;100.00;101856.78;5027472;28;20194;-49
2022/01/11 08:49:01;;;;;;;25.97;19.30;;;;;;;1.14;100.00;101868.69;5029471;28;20687;-50
2022/01/11 08:51:27;;;;;;;23.07;19.07;;;;;;;1.18;100.00;101875.75;5023895;28;20194;-49
2022/01/11 08:53:52;;;;;;;27.90;20.80;;;;;;;1.19;100.00;101866.44;5024363;28;20273;-49
2022/01/11 08:56:17;;;;;;;27.87;21.00;;;;;;;1.21;100.00;101868.25;5026708;28;20191;-49
2022/01/11 08:58:44;;;;;;;30.40;23.67;;;;;;;1.26;100.00;101860.84;5024250;28;20588;-50
2022/01/11 09:01:10;;;;;;;27.37;21.40;;;;;;;1.29;100.00;101852.47;5018350;28;20204;-49
2022/01/11 09:03:36;;;;;;;27.77;20.47;;;;;;;1.34;100.00;101849.41;5025373;28;20192;-50
2022/01/11 09:06:03;;;;;;;28.00;21.07;;;;;;;1.43;100.00;101854.13;5012800;28;21085;-50
2022/01/11 09:08:28;;;;;;;25.20;20.00;;;;;;;1.49;100.00;101857.00;5019971;28;20226;-49
2022/01/11 09:10:54;;;;;;;26.50;20.30;;;;;;;1.54;100.00;101859.78;5020917;28;20559;-49
2022/01/11 09:13:20;;;;;;;28.90;21.67;;;;;;;1.60;100.00;101849.03;5026999;28;20554;-50
2022/01/11 09:15:46;;;;;;;24.63;20.67;;;;;;;1.64;100.00;101850.94;5025523;28;20256;-49
2022/01/11 09:18:12;;;;;;;24.77;19.90;;;;;;;1.71;100.00;101850.50;5026046;28;20257;-49
2022/01/11 09:20:38;;;;;;;24.37;20.77;;;;;;;1.79;100.00;101859.41;5022207;28;20655;-49
2022/01/11 09:23:03;;;;;;;25.23;19.93;;;;;;;1.90;100.00;101853.97;5026979;28;20234;-50
2022/01/11 09:25:28;;;;;;;24.83;19.80;;;;;;;1.91;100.00;101846.41;5026246;28;20191;-50
2022/01/11 09:27:54;;;;;;;26.03;21.37;;;;;;;1.99;100.00;101854.47;5028205;28;20207;-50
2022/01/11 09:30:20;;;;;;;26.37;21.07;;;;;;;2.05;100.00;101851.34;5027898;28;20191;-50
2022/01/11 09:32:46;;;;;;;24.53;19.00;;;;;;;2.08;100.00;101860.03;5029018;28;20246;-49
2022/01/11 09:35:13;;;;;;;22.87;20.40;;;;;;;2.11;100.00;101860.19;5025906;28;20733;-49
2022/01/11 09:37:39;;;;;;;25.47;19.60;;;;;;;2.18;100.00;101860.53;5026236;28;20210;-50
2022/01/11 09:40:07;;;;;;;24.43;19.80;;;;;;;2.23;100.00;101865.06;5028054;28;20238;-49
2022/01/11 09:42:32;;;;;;;22.00;19.50;;;;;;;2.25;100.00;101866.03;5018593;28;20223;-49
2022/01/11 09:44:59;;;;;;;23.90;18.57;;;;;;;2.37;100.00;101864.88;5023246;28;20656;-49
2022/01/11 09:47:25;;;;;;;23.33;19.80;;;;;;;2.30;100.00;101868.81;5024760;28;20219;-49
2022/01/11 09:49:51;;;;;;;25.00;19.83;;;;;;;2.39;100.00;101874.38;5018752;28;20223;-52
2022/01/11 09:52:17;;;;;;;25.20;19.00;;;;;;;2.46;100.00;101874.69;5025934;28;20194;-49
2022/01/11 09:54:45;;;;;;;23.00;18.50;;;;;;;2.50;100.00;101863.78;5026652;28;20637;-49
2022/01/11 09:57:11;;;;;;;22.90;19.37;;;;;;;2.55;100.00;101887.91;5020369;28;20212;-49
2022/01/11 09:59:37;;;;;;;26.27;19.80;;;;;;;2.55;100.00;101881.13;5021319;28;20196;-49
2022/01/11 10:02:04;;;;;;;20.60;18.47;;;;;;;2.64;100.00;101885.84;5017464;28;20208;-49
2022/01/11 10:04:32;;;;;;;25.70;19.13;;;;;;;2.70;100.00;101885.25;5023330;28;20561;-50
2022/01/11 10:07:09;;;;;;;20.27;17.63;;;;;;;2.76;100.00;101888.09;5024277;28;20290;-49
2022/01/11 10:09:48;;;;;;;22.33;18.47;;;;;;;2.84;100.00;101891.03;5022643;28;20192;-50
2022/01/11 10:12:15;;;;;;;26.07;19.43;;;;;;;2.83;100.00;101892.72;5023450;28;20180;-49
2022/01/11 10:14:50;;;;;;;22.63;18.70;;;;;;;2.85;100.00;101886.00;5022312;28;20203;-49
2022/01/11 10:17:27;;;;;;;22.53;18.27;;;;;;;2.99;100.00;101884.09;5024868;28;20199;-50
2022/01/11 10:20:15;;;;;;;19.37;17.13;;;;;;;3.09;100.00;101877.72;5027122;28;20707;-49
2022/01/11 10:23:02;;;;;;;23.40;17.70;;;;;;;3.25;100.00;101881.00;5035995;28;20223;-49
2022/01/11 10:25:30;;;;;;;26.20;18.60;;;;;;;3.24;100.00;101875.03;5019509;28;20192;-50
2022/01/11 10:28:01;;;;;;;25.70;19.13;;;;;;;3.25;100.00;101887.03;5021764;28;20211;-49
2022/01/11 10:30:27;;;;;;;24.43;19.63;;;;;;;3.23;100.00;101885.19;5019213;28;20271;-48
2022/01/11 10:32:56;;;;;;;23.23;19.13;;;;;;;3.29;100.00;101877.81;5017959;28;20270;-49
2022/01/11 10:35:28;;;;;;;25.87;20.13;;;;;;;3.31;100.00;101873.63;5014706;28;20710;-49
2022/01/11 10:37:59;;;;;;;25.73;19.83;;;;;;;3.33;100.00;101885.69;5018637;28;20355;-51
2022/01/11 10:40:34;;;;;;;28.63;21.20;;;;;;;3.33;100.00;101888.25;5013238;28;20890;-50
2022/01/11 10:43:09;;;;;;;22.70;18.90;;;;;;;3.38;100.00;101874.78;5029062;28;20214;-49
2022/01/11 10:45:37;;;;;;;25.07;20.00;;;;;;;3.49;100.00;101871.03;5019997;28;20191;-52
2022/01/11 10:48:03;;;;;;;27.37;20.17;;;;;;;3.68;100.00;101879.56;5015303;28;20203;-49
2022/01/11 10:50:37;;;;;;;27.03;20.43;;;;;;;3.85;100.00;101876.06;5019167;28;20191;-49
2022/01/11 10:53:11;;;;;;;28.20;20.67;;;;;;;3.95;100.00;101877.31;5023774;28;20186;-49
2022/01/11 10:55:36;;;;;;;25.47;19.83;;;;;;;4.19;100.00;101879.22;5022059;28;20270;-51
2022/01/11 10:58:05;;;;;;;23.90;19.43;;;;;;;4.37;100.00;101867.19;5025220;28;20294;-50
2022/01/11 11:00:45;;;;;;;24.63;19.90;;;;;;;4.42;100.00;101868.25;5018223;28;20196;-49
2022/01/11 11:03:15;;;;;;;26.13;20.07;;;;;;;4.48;100.00;101877.00;5022548;28;20537;-49
2022/01/11 11:05:55;;;;;;;23.43;19.67;;;;;;;4.67;100.00;101876.97;5020722;28;20253;-51
2022/01/11 11:08:24;;;;;;;21.13;18.70;;;;;;;4.67;100.00;101873.50;5014612;28;20211;-48
2022/01/11 11:11:10;;;;;;;20.70;18.50;;;;;;;4.88;100.00;101870.94;5026880;28;20187;-49